Time;durP1;ratioP1;P1;durP2;ratioP2;P2;SDS_P1;SDS_P2;PMS_P1;PMS_P2;Temp;Humidity;BMP_temperature;BMP_pressure;BME280_temperature;BME280_humidity;BME280_pressure;Samples;Min_cycle;Max_cycle;Signal;HPM_P1;HPM_P2
2023/10/02 00:05:07;;;;;;;21.42;10.77;;;;;;;;;;4979796;28;25043;-70
2023/10/02 00:07:34;;;;;;;22.20;11.13;;;;;;;;;;4981720;28;25056;-69
2023/10/02 00:10:00;;;;;;;21.75;11.13;;;;;;;;;;4972486;28;25068;-69
2023/10/02 00:12:28;;;;;;;23.45;11.73;;;;;;;;;;4984695;28;25078;-74
2023/10/02 00:14:55;;;;;;;25.08;12.27;;;;;;;;;;4979289;28;25057;-69
2023/10/02 00:17:24;;;;;;;24.10;11.45;;;;;;;;;;4983047;28;25079;-72
2023/10/02 00:19:57;;;;;;;24.67;12.25;;;;;;;;;;4993807;28;25117;-69
2023/10/02 00:22:36;;;;;;;25.58;11.45;;;;;;;;;;4987975;28;25073;-71
2023/10/02 00:25:02;;;;;;;25.15;11.68;;;;;;;;;;4967302;28;25046;-70
2023/10/02 00:27:31;;;;;;;22.13;10.80;;;;;;;;;;4990033;28;25130;-69
2023/10/02 00:30:00;;;;;;;26.38;12.00;;;;;;;;;;4991311;28;25141;-72
2023/10/02 00:32:29;;;;;;;28.65;11.55;;;;;;;;;;4987492;28;25105;-73
2023/10/02 00:34:58;;;;;;;27.65;11.88;;;;;;;;;;4986110;28;25064;-70
2023/10/02 00:37:43;;;;;;;32.58;11.90;;;;;;;;;;4980633;28;25147;-69
2023/10/02 00:40:09;;;;;;;23.90;11.43;;;;;;;;;;4981042;28;25073;-71
2023/10/02 00:42:36;;;;;;;27.45;12.55;;;;;;;;;;4977818;28;25114;-73
2023/10/02 00:45:03;;;;;;;29.73;12.60;;;;;;;;;;4975454;28;25050;-72
2023/10/02 00:47:42;;;;;;;23.88;11.68;;;;;;;;;;4991785;28;25086;-72
2023/10/02 00:50:19;;;;;;;26.70;13.57;;;;;;;;;;4988897;28;25059;-72
2023/10/02 00:52:47;;;;;;;23.58;11.38;;;;;;;;;;4999947;28;25052;-72
2023/10/02 00:55:20;;;;;;;26.23;11.57;;;;;;;;;;5010703;28;25159;-69
2023/10/02 00:57:45;;;;;;;;;;;;;;;;;;4977116;28;25136;-71
2023/10/02 01:00:22;;;;;;;26.08;12.32;;;;;;;;;;4995992;28;25092;-72
2023/10/02 01:02:49;;;;;;;26.88;12.20;;;;;;;;;;4977789;28;25102;-69
2023/10/02 01:05:16;;;;;;;26.50;12.68;;;;;;;;;;4962469;28;25079;-72
2023/10/02 01:07:42;;;;;;;25.38;12.35;;;;;;;;;;4992757;28;25067;-70
2023/10/02 01:10:17;;;;;;;28.05;12.60;;;;;;;;;;5001450;28;25070;-68
2023/10/02 01:12:43;;;;;;;25.55;12.23;;;;;;;;;;4993369;28;25069;-72
2023/10/02 01:15:12;;;;;;;26.85;12.02;;;;;;;;;;5001782;28;25084;-70
2023/10/02 01:17:45;;;;;;;28.58;12.45;;;;;;;;;;4994257;28;25081;-71
2023/10/02 01:20:53;;;;;;;24.33;11.38;;;;;;;;;;5005021;28;25151;-70
2023/10/02 01:23:17;;;;;;;26.63;11.85;;;;;;;;;;4982244;28;25076;-71
2023/10/02 01:25:47;;;;;;;30.42;13.48;;;;;;;;;;4974518;28;25049;-70
2023/10/02 01:28:15;;;;;;;31.40;12.70;;;;;;;;;;4991402;28;25141;-70
2023/10/02 01:30:42;;;;;;;28.42;12.75;;;;;;;;;;4992437;28;25077;-70
2023/10/02 01:33:14;;;;;;;29.35;12.88;;;;;;;;;;4997548;28;25052;-70
2023/10/02 01:35:47;;;;;;;23.63;12.05;;;;;;;;;;4993404;28;25069;-70
2023/10/02 01:38:14;;;;;;;26.88;12.63;;;;;;;;;;4992034;28;25143;-70
2023/10/02 01:40:48;;;;;;;27.95;13.30;;;;;;;;;;4991972;28;25055;-70
2023/10/02 01:43:15;;;;;;;24.85;12.10;;;;;;;;;;4987245;28;25099;-71
2023/10/02 01:45:42;;;;;;;23.35;10.80;;;;;;;;;;5000975;28;25069;-72
2023/10/02 01:48:14;;;;;;;25.58;12.32;;;;;;;;;;4985017;28;25059;-71
2023/10/02 01:50:45;;;;;;;26.38;11.90;;;;;;;;;;4983515;28;25167;-70
2023/10/02 01:53:30;;;;;;;27.08;12.82;;;;;;;;;;4989575;28;25134;-70
2023/10/02 01:56:10;;;;;;;21.45;11.88;;;;;;;;;;4985136;28;25090;-69
2023/10/02 01:58:39;;;;;;;22.95;11.23;;;;;;;;;;4998349;28;25068;-71
2023/10/02 02:01:06;;;;;;;26.65;12.10;;;;;;;;;;4993855;28;25076;-71
2023/10/02 02:03:33;;;;;;;26.48;11.52;;;;;;;;;;4993818;28;25094;-71
2023/10/02 02:06:08;;;;;;;26.45;11.82;;;;;;;;;;4992565;28;25071;-72
2023/10/02 02:08:35;;;;;;;29.88;13.02;;;;;;;;;;4991234;28;25087;-72
2023/10/02 02:11:16;;;;;;;25.02;11.65;;;;;;;;;;4992540;28;25057;-71
2023/10/02 02:13:52;;;;;;;31.80;12.93;;;;;;;;;;4993270;28;25088;-72
2023/10/02 02:16:21;;;;;;;24.45;11.80;;;;;;;;;;4997061;28;25146;-72
2023/10/02 02:18:50;;;;;;;27.65;12.85;;;;;;;;;;4993728;28;25049;-72
2023/10/02 02:21:17;;;;;;;25.98;12.40;;;;;;;;;;4992620;28;25053;-71
2023/10/02 02:23:45;;;;;;;26.52;12.40;;;;;;;;;;5000446;28;25131;-73
2023/10/02 02:26:20;;;;;;;28.20;12.02;;;;;;;;;;4996758;28;25075;-71
2023/10/02 02:28:46;;;;;;;26.23;11.25;;;;;;;;;;4977269;28;25058;-71
2023/10/02 02:31:31;;;;;;;26.50;12.68;;;;;;;;;;4998436;28;25094;-71
2023/10/02 02:34:09;;;;;;;34.38;13.93;;;;;;;;;;4989086;28;25048;-70
2023/10/02 02:36:41;;;;;;;23.48;11.68;;;;;;;;;;4991366;28;25128;-72
2023/10/02 02:39:16;;;;;;;25.67;12.30;;;;;;;;;;4977890;28;25143;-72
2023/10/02 02:42:08;;;;;;;27.75;12.45;;;;;;;;;;4979424;28;25140;-70
2023/10/02 02:44:39;;;;;;;26.08;13.25;;;;;;;;;;4986800;28;25074;-69
2023/10/02 02:47:09;;;;;;;26.92;11.63;;;;;;;;;;4983629;28;25161;-71
2023/10/02 02:49:48;;;;;;;27.00;12.63;;;;;;;;;;4982078;28;25083;-70
2023/10/02 02:52:27;;;;;;;25.67;11.68;;;;;;;;;;4994578;28;25086;-70
2023/10/02 02:55:03;;;;;;;26.52;12.75;;;;;;;;;;4985212;28;25063;-70
2023/10/02 02:57:30;;;;;;;22.00;11.80;;;;;;;;;;4991611;28;25081;-71
2023/10/02 03:02:46;;;;;;;25.35;12.35;;;;;;;;;;5003795;28;25078;-70
2023/10/02 03:05:12;;;;;;;26.30;12.30;;;;;;;;;;4989959;28;25073;-72
2023/10/02 03:07:39;;;;;;;24.83;11.63;;;;;;;;;;4991062;28;25079;-70
2023/10/02 03:10:10;;;;;;;29.10;12.68;;;;;;;;;;4998157;28;25054;-71
2023/10/02 03:12:44;;;;;;;24.70;12.17;;;;;;;;;;5003394;28;25072;-70
2023/10/02 03:15:12;;;;;;;23.42;11.07;;;;;;;;;;4969723;28;25105;-71
2023/10/02 03:17:41;;;;;;;27.00;11.82;;;;;;;;;;4979458;28;25047;-70
2023/10/02 03:20:22;;;;;;;26.38;12.18;;;;;;;;;;4981163;28;25055;-72
2023/10/02 03:22:52;;;;;;;21.42;11.45;;;;;;;;;;4989228;28;25131;-71
2023/10/02 03:25:25;;;;;;;25.98;11.43;;;;;;;;;;4994241;28;25066;-71
2023/10/02 03:27:54;;;;;;;28.60;12.35;;;;;;;;;;4977140;28;25167;-70
2023/10/02 03:30:35;;;;;;;27.33;12.27;;;;;;;;;;4981628;28;25062;-69
2023/10/02 03:33:01;;;;;;;27.25;11.70;;;;;;;;;;4983793;28;25074;-70
2023/10/02 03:35:27;;;;;;;29.88;13.50;;;;;;;;;;4986369;28;25066;-70
2023/10/02 03:37:53;;;;;;;27.95;12.23;;;;;;;;;;4975684;28;25069;-72
2023/10/02 03:40:25;;;;;;;25.08;12.20;;;;;;;;;;4993430;28;25079;-70
2023/10/02 03:42:54;;;;;;;29.33;13.20;;;;;;;;;;4987519;28;25063;-71
2023/10/02 03:45:38;;;;;;;25.85;12.88;;;;;;;;;;4978207;28;25053;-70
2023/10/02 03:48:07;;;;;;;31.02;12.98;;;;;;;;;;5007379;28;25098;-71
2023/10/02 03:50:37;;;;;;;25.33;11.82;;;;;;;;;;4989082;28;25100;-70
2023/10/02 03:53:12;;;;;;;26.85;12.73;;;;;;;;;;5004809;28;25117;-71
2023/10/02 03:55:39;;;;;;;27.25;12.35;;;;;;;;;;4985741;28;25048;-70
2023/10/02 03:58:05;;;;;;;29.10;12.80;;;;;;;;;;4985857;28;25061;-69
2023/10/02 04:00:43;;;;;;;25.73;13.18;;;;;;;;;;4991834;28;25522;-71
2023/10/02 04:03:09;;;;;;;31.38;11.73;;;;;;;;;;5001431;28;25064;-69
2023/10/02 04:05:45;;;;;;;30.90;12.93;;;;;;;;;;4990975;28;25048;-70
2023/10/02 04:08:37;;;;;;;25.65;11.65;;;;;;;;;;4989641;28;25076;-71
2023/10/02 04:11:03;;;;;;;30.42;13.38;;;;;;;;;;4990857;28;25131;-70
2023/10/02 04:13:33;;;;;;;32.65;13.65;;;;;;;;;;4978961;28;25106;-71
2023/10/02 04:18:49;;;;;;;27.10;12.60;;;;;;;;;;4994080;28;25063;-71
2023/10/02 04:21:19;;;;;;;25.08;12.52;;;;;;;;;;5000175;28;25072;-71
2023/10/02 04:23:45;;;;;;;24.77;11.93;;;;;;;;;;5017990;28;25055;-72
2023/10/02 04:26:19;;;;;;;30.40;13.57;;;;;;;;;;5004412;28;25085;-71
2023/10/02 04:28:58;;;;;;;26.98;12.48;;;;;;;;;;5011116;28;25065;-71
2023/10/02 04:31:28;;;;;;;24.83;12.63;;;;;;;;;;4988559;28;25042;-72
2023/10/02 04:34:15;;;;;;;28.45;13.13;;;;;;;;;;4996373;28;25055;-71
2023/10/02 04:36:43;;;;;;;23.50;11.30;;;;;;;;;;5005199;28;25060;-72
2023/10/02 04:39:51;;;;;;;27.40;13.82;;;;;;;;;;4999070;28;25068;-72
2023/10/02 04:45:16;;;;;;;27.83;13.93;;;;;;;;;;4992251;28;25105;-73
2023/10/02 04:47:44;;;;;;;30.60;12.52;;;;;;;;;;4992651;28;25081;-70
2023/10/02 04:55:49;;;;;;;32.38;12.68;;;;;;;;;;4993018;28;25057;-73
2023/10/02 04:58:27;;;;;;;24.73;12.38;;;;;;;;;;4987541;28;25042;-72
2023/10/02 05:03:28;;;;;;;29.92;13.13;;;;;;;;;;4984936;28;25084;-72
2023/10/02 05:05:55;;;;;;;29.08;13.52;;;;;;;;;;4992975;28;25061;-72
2023/10/02 05:08:29;;;;;;;26.95;13.35;;;;;;;;;;4991177;28;25057;-72
2023/10/02 05:11:06;;;;;;;26.80;12.55;;;;;;;;;;4987766;28;25055;-72
2023/10/02 05:13:53;;;;;;;33.35;13.85;;;;;;;;;;4990724;28;25067;-71
2023/10/02 05:16:27;;;;;;;30.67;13.30;;;;;;;;;;4990260;28;25095;-72
2023/10/02 05:18:54;;;;;;;28.70;13.32;;;;;;;;;;4987629;28;25086;-71
2023/10/02 05:21:35;;;;;;;32.15;14.40;;;;;;;;;;4988598;28;25097;-71
2023/10/02 05:24:15;;;;;;;29.23;12.70;;;;;;;;;;4983001;28;25068;-72
2023/10/02 05:26:46;;;;;;;30.45;13.88;;;;;;;;;;4981854;28;25100;-73
2023/10/02 05:29:17;;;;;;;27.80;13.98;;;;;;;;;;4964539;28;25136;-70
2023/10/02 05:31:43;;;;;;;28.88;13.50;;;;;;;;;;4971420;28;25120;-72
2023/10/02 05:34:21;;;;;;;30.70;14.75;;;;;;;;;;4998379;28;25168;-73
2023/10/02 05:39:39;;;;;;;30.35;14.43;;;;;;;;;;4992350;28;25129;-72
2023/10/02 05:42:13;;;;;;;33.15;13.13;;;;;;;;;;4987373;28;25046;-70
2023/10/02 05:44:39;;;;;;;27.30;13.35;;;;;;;;;;4995784;28;25156;-71
2023/10/02 05:47:06;;;;;;;30.38;12.95;;;;;;;;;;4991701;28;25070;-72
2023/10/02 05:49:32;;;;;;;31.50;13.75;;;;;;;;;;4985245;28;25112;-71
2023/10/02 05:52:00;;;;;;;24.65;12.65;;;;;;;;;;4991624;28;25064;-71
2023/10/02 05:54:29;;;;;;;30.60;13.65;;;;;;;;;;4992953;28;25074;-71
2023/10/02 05:57:12;;;;;;;35.35;13.52;;;;;;;;;;4984343;28;25091;-72
2023/10/02 05:59:46;;;;;;;33.50;14.65;;;;;;;;;;4991154;28;25070;-70
2023/10/02 06:02:19;;;;;;;37.65;14.77;;;;;;;;;;4993171;28;25058;-71
2023/10/02 06:04:49;;;;;;;32.80;13.98;;;;;;;;;;4984432;28;25105;-69
2023/10/02 06:07:43;;;;;;;29.52;14.13;;;;;;;;;;4988316;28;25061;-69
2023/10/02 06:10:07;;;;;;;30.52;13.27;;;;;;;;;;4983489;28;25069;-69
2023/10/02 06:12:33;;;;;;;33.13;13.63;;;;;;;;;;4992777;28;25074;-72
2023/10/02 06:15:08;;;;;;;27.98;13.20;;;;;;;;;;4985787;28;25066;-72
2023/10/02 06:17:35;;;;;;;29.75;13.23;;;;;;;;;;4992220;28;25070;-70
2023/10/02 06:20:01;;;;;;;31.48;13.02;;;;;;;;;;4989529;28;25060;-69
2023/10/02 06:22:27;;;;;;;29.25;12.55;;;;;;;;;;4992364;28;25094;-73
2023/10/02 06:24:53;;;;;;;32.25;13.05;;;;;;;;;;4970989;28;25069;-72
2023/10/02 06:27:22;;;;;;;26.52;12.60;;;;;;;;;;4983510;28;25095;-73
2023/10/02 06:29:50;;;;;;;27.00;11.75;;;;;;;;;;4985162;28;25077;-71
2023/10/02 06:32:19;;;;;;;28.73;12.55;;;;;;;;;;4969624;28;25065;-72
2023/10/02 06:34:46;;;;;;;28.63;13.40;;;;;;;;;;4964025;28;25057;-70
2023/10/02 06:37:21;;;;;;;28.15;13.10;;;;;;;;;;4985600;28;25076;-70
2023/10/02 06:40:13;;;;;;;28.13;13.68;;;;;;;;;;4957011;28;25059;-71
2023/10/02 06:42:50;;;;;;;23.38;11.52;;;;;;;;;;4970758;28;25082;-68
2023/10/02 06:45:29;;;;;;;32.97;14.15;;;;;;;;;;4989104;28;25105;-70
2023/10/02 06:47:58;;;;;;;27.70;12.52;;;;;;;;;;4985586;28;25034;-71
2023/10/02 06:52:51;;;;;;;26.75;14.07;;;;;;;;;;4989325;28;25077;-69
2023/10/02 06:55:17;;;;;;;24.45;12.32;;;;;;;;;;4993701;28;25055;-70
2023/10/02 06:57:50;;;;;;;28.52;13.43;;;;;;;;;;4998097;28;25063;-72
2023/10/02 07:00:23;;;;;;;29.75;13.90;;;;;;;;;;4976905;28;25058;-72
2023/10/02 07:03:03;;;;;;;25.70;12.85;;;;;;;;;;4986367;28;25142;-71
2023/10/02 07:05:39;;;;;;;29.13;13.18;;;;;;;;;;4994842;28;25058;-74
2023/10/02 07:08:21;;;;;;;26.33;13.50;;;;;;;;;;4990486;28;25058;-73
2023/10/02 07:10:47;;;;;;;31.60;14.20;;;;;;;;;;4980531;28;25072;-69
2023/10/02 07:13:20;;;;;;;30.50;12.68;;;;;;;;;;4991548;28;25091;-73
2023/10/02 07:15:59;;;;;;;28.83;12.60;;;;;;;;;;4981305;28;25072;-71
2023/10/02 07:18:36;;;;;;;30.52;12.70;;;;;;;;;;4985358;28;25044;-70
2023/10/02 07:21:07;;;;;;;29.60;13.82;;;;;;;;;;4990500;28;25086;-70
2023/10/02 07:23:37;;;;;;;31.38;14.30;;;;;;;;;;4994040;28;25068;-69
2023/10/02 07:26:04;;;;;;;29.50;12.23;;;;;;;;;;4991941;28;25048;-71
2023/10/02 07:28:31;;;;;;;27.98;13.63;;;;;;;;;;4969256;28;25094;-73
2023/10/02 07:30:59;;;;;;;27.95;13.80;;;;;;;;;;4989564;28;25059;-71
2023/10/02 07:33:25;;;;;;;28.90;13.65;;;;;;;;;;4972552;28;25094;-70
2023/10/02 07:35:54;;;;;;;28.40;13.20;;;;;;;;;;4969050;28;25050;-71
2023/10/02 07:38:22;;;;;;;30.60;13.20;;;;;;;;;;4990958;28;25081;-70
2023/10/02 07:40:49;;;;;;;31.52;13.68;;;;;;;;;;4987983;28;25063;-70
2023/10/02 07:43:19;;;;;;;29.73;13.35;;;;;;;;;;4986845;28;25062;-70
2023/10/02 07:45:45;;;;;;;27.25;12.15;;;;;;;;;;4979440;28;25091;-73
2023/10/02 07:48:12;;;;;;;32.35;14.05;;;;;;;;;;4994580;28;25097;-69
2023/10/02 07:50:41;;;;;;;32.97;13.85;;;;;;;;;;4999805;28;25055;-70
2023/10/02 07:53:07;;;;;;;27.00;13.05;;;;;;;;;;4988050;28;25075;-71
2023/10/02 07:55:34;;;;;;;30.92;14.93;;;;;;;;;;4993151;28;25099;-72
2023/10/02 07:58:01;;;;;;;26.30;13.25;;;;;;;;;;5005730;28;25067;-71
2023/10/02 08:00:39;;;;;;;33.90;14.98;;;;;;;;;;5002690;28;25078;-71
2023/10/02 08:05:56;;;;;;;28.67;13.18;;;;;;;;;;5008415;28;25069;-72
2023/10/02 08:08:25;;;;;;;29.20;13.90;;;;;;;;;;5008398;28;25073;-70
2023/10/02 08:10:52;;;;;;;31.58;13.43;;;;;;;;;;5001777;28;25092;-71
2023/10/02 08:13:32;;;;;;;26.27;12.55;;;;;;;;;;5001160;28;25065;-72
2023/10/02 08:16:03;;;;;;;31.50;14.55;;;;;;;;;;4988838;28;25059;-72
2023/10/02 08:18:30;;;;;;;28.77;13.00;;;;;;;;;;4993950;28;25053;-73
2023/10/02 08:20:56;;;;;;;31.27;13.25;;;;;;;;;;4994761;28;25095;-71
2023/10/02 08:23:22;;;;;;;36.15;13.82;;;;;;;;;;4990613;28;25076;-71
2023/10/02 08:26:00;;;;;;;30.05;13.93;;;;;;;;;;4993819;28;25092;-71
2023/10/02 08:28:37;;;;;;;30.33;13.77;;;;;;;;;;4985758;28;25098;-70
2023/10/02 08:31:03;;;;;;;29.33;13.68;;;;;;;;;;4993725;28;25097;-71
2023/10/02 08:33:33;;;;;;;24.70;13.45;;;;;;;;;;4994273;28;25063;-71
2023/10/02 08:36:01;;;;;;;29.25;13.70;;;;;;;;;;4992935;28;25088;-70
2023/10/02 08:38:27;;;;;;;37.72;14.65;;;;;;;;;;4970719;28;25070;-71
2023/10/02 08:41:00;;;;;;;33.30;13.40;;;;;;;;;;4994999;28;25078;-72
2023/10/02 08:43:29;;;;;;;30.55;14.60;;;;;;;;;;4983448;28;25086;-71
2023/10/02 08:45:59;;;;;;;28.80;13.63;;;;;;;;;;4989605;28;25066;-70
2023/10/02 08:48:25;;;;;;;27.15;13.18;;;;;;;;;;4991660;28;25064;-71
2023/10/02 08:50:57;;;;;;;31.60;16.00;;;;;;;;;;4976341;28;25073;-69
2023/10/02 08:53:24;;;;;;;31.63;15.38;;;;;;;;;;4988781;28;25060;-73
2023/10/02 08:56:04;;;;;;;29.50;12.90;;;;;;;;;;4996576;28;25067;-73
2023/10/02 08:58:31;;;;;;;29.50;13.75;;;;;;;;;;4985207;28;25064;-73
2023/10/02 09:01:17;;;;;;;30.02;13.73;;;;;;;;;;4990433;28;25085;-70
2023/10/02 09:06:41;;;;;;;29.48;13.30;;;;;;;;;;4988461;28;25086;-71
2023/10/02 09:09:21;;;;;;;29.90;13.93;;;;;;;;;;4988139;28;25069;-71
2023/10/02 09:11:52;;;;;;;26.83;13.27;;;;;;;;;;4997850;28;25062;-70
2023/10/02 09:16:45;;;;;;;28.88;14.43;;;;;;;;;;4988309;28;25084;-70
2023/10/02 09:19:31;;;;;;;28.02;14.15;;;;;;;;;;4975030;28;25053;-71
2023/10/02 09:22:12;;;;;;;29.02;14.13;;;;;;;;;;4979735;28;25046;-72
2023/10/02 09:24:38;;;;;;;27.48;13.07;;;;;;;;;;4966960;28;25059;-72
2023/10/02 09:27:25;;;;;;;27.55;13.38;;;;;;;;;;4977331;28;25154;-70
2023/10/02 09:32:47;;;;;;;27.65;13.48;;;;;;;;;;4994771;28;25058;-69
2023/10/02 09:35:25;;;;;;;27.40;14.15;;;;;;;;;;4988768;28;25077;-71
2023/10/02 09:37:56;;;;;;;24.45;14.35;;;;;;;;;;4978458;28;25057;-70
2023/10/02 09:40:28;;;;;;;28.52;13.55;;;;;;;;;;4988346;28;25097;-70
2023/10/02 09:43:01;;;;;;;26.08;13.77;;;;;;;;;;5011696;28;25043;-71
2023/10/02 09:45:32;;;;;;;28.27;15.02;;;;;;;;;;4986188;28;25072;-69
2023/10/02 09:48:06;;;;;;;36.30;13.27;;;;;;;;;;4974000;28;25060;-71
2023/10/02 09:50:34;;;;;;;28.35;13.35;;;;;;;;;;4985048;28;25058;-72
2023/10/02 09:53:08;;;;;;;28.90;13.55;;;;;;;;;;4985947;28;25065;-71
2023/10/02 09:55:40;;;;;;;30.27;14.27;;;;;;;;;;4989771;28;25055;-70
2023/10/02 09:58:06;;;;;;;;;;;;;;;;;;4989691;28;25067;-72
2023/10/02 10:00:36;;;;;;;27.33;13.80;;;;;;;;;;4976203;28;24066;-71
2023/10/02 10:03:24;;;;;;;25.80;12.73;;;;;;;;;;4974405;28;25062;-70
2023/10/02 10:06:15;;;;;;;30.23;13.48;;;;;;;;;;4988306;28;25108;-71
2023/10/02 10:11:44;;;;;;;30.48;13.25;;;;;;;;;;4987472;28;25084;-71
2023/10/02 10:14:37;;;;;;;27.92;13.98;;;;;;;;;;4989756;28;25122;-70
2023/10/02 10:17:12;;;;;;;27.95;14.32;;;;;;;;;;4988728;28;25070;-71
2023/10/02 10:19:41;;;;;;;28.45;14.25;;;;;;;;;;4984945;28;25067;-72
2023/10/02 10:22:27;;;;;;;32.17;15.07;;;;;;;;;;4971819;28;25054;-70
2023/10/02 10:25:38;;;;;;;32.88;15.25;;;;;;;;;;4987474;28;25130;-71
2023/10/02 10:27:43;;;;;;;31.25;14.65;;;;;;;;;;4992036;28;25072;-71
2023/10/02 10:35:48;;;;;;;36.83;17.40;;;;;;;;;;5005161;28;25097;-71
2023/10/02 10:38:36;;;;;;;28.98;15.05;;;;;;;;;;4991665;28;25139;-70
2023/10/02 10:41:09;;;;;;;37.28;16.88;;;;;;;;;;5001552;28;25078;-71
2023/10/02 10:43:54;;;;;;;32.05;16.00;;;;;;;;;;5005469;28;25095;-68
2023/10/02 10:46:22;;;;;;;35.38;16.52;;;;;;;;;;4974252;28;25072;-68
2023/10/02 10:49:23;;;;;;;33.03;16.35;;;;;;;;;;4982410;28;25053;-71
2023/10/02 10:51:53;;;;;;;36.27;17.90;;;;;;;;;;4997972;28;25049;-72
2023/10/02 10:54:25;;;;;;;34.47;16.83;;;;;;;;;;5010213;28;25148;-72
2023/10/02 10:56:51;;;;;;;;;;;;;;;;;;4997629;28;25075;-69
2023/10/02 10:59:24;;;;;;;33.22;16.83;;;;;;;;;;4974107;28;25065;-70
2023/10/02 11:02:09;;;;;;;33.90;17.02;;;;;;;;;;4986365;28;25076;-71
2023/10/02 11:04:39;;;;;;;33.83;17.27;;;;;;;;;;4997367;28;25099;-72
2023/10/02 11:07:19;;;;;;;30.92;15.20;;;;;;;;;;4996984;28;25055;-71
2023/10/02 11:10:12;;;;;;;33.53;16.17;;;;;;;;;;4979339;28;25528;-71
2023/10/02 11:12:38;;;;;;;31.38;16.15;;;;;;;;;;4983823;28;25072;-72
2023/10/02 11:15:14;;;;;;;32.22;15.93;;;;;;;;;;4969376;28;25083;-71
2023/10/02 11:17:42;;;;;;;30.30;15.93;;;;;;;;;;4982646;28;25079;-72
2023/10/02 11:20:09;;;;;;;30.48;14.77;;;;;;;;;;4994398;28;25061;-74
2023/10/02 11:22:51;;;;;;;30.17;15.15;;;;;;;;;;4990030;28;25070;-71
2023/10/02 11:25:18;;;;;;;36.28;15.75;;;;;;;;;;4991679;28;25153;-70
2023/10/02 11:27:56;;;;;;;33.30;16.02;;;;;;;;;;4974450;28;25055;-71
2023/10/02 11:30:31;;;;;;;30.10;16.05;;;;;;;;;;4961907;28;25156;-71
2023/10/02 11:33:04;;;;;;;28.40;13.40;;;;;;;;;;4990578;28;25130;-72
2023/10/02 11:35:37;;;;;;;28.38;14.15;;;;;;;;;;4983697;28;25107;-71
2023/10/02 11:38:04;;;;;;;30.73;15.07;;;;;;;;;;4988844;28;25103;-71
2023/10/02 11:40:32;;;;;;;34.17;14.88;;;;;;;;;;4993148;28;25067;-70
2023/10/02 11:42:59;;;;;;;31.27;14.63;;;;;;;;;;4977002;28;25092;-71
2023/10/02 11:45:29;;;;;;;27.55;13.55;;;;;;;;;;4964459;28;25055;-72
2023/10/02 11:47:55;;;;;;;28.70;13.45;;;;;;;;;;4969269;28;25311;-73
2023/10/02 11:50:22;;;;;;;27.92;13.15;;;;;;;;;;5000989;28;25088;-73
2023/10/02 11:52:49;;;;;;;32.22;14.50;;;;;;;;;;4996167;28;25108;-73
2023/10/02 11:55:17;;;;;;;29.60;14.10;;;;;;;;;;4982301;28;25070;-75
2023/10/02 11:57:44;;;;;;;30.00;14.68;;;;;;;;;;4965969;28;25059;-73
2023/10/02 12:00:12;;;;;;;28.85;13.73;;;;;;;;;;4974177;28;25106;-71
2023/10/02 12:02:45;;;;;;;27.60;13.35;;;;;;;;;;4990037;28;25159;-75
2023/10/02 12:05:11;;;;;;;28.25;14.40;;;;;;;;;;4988233;28;25056;-73
2023/10/02 12:07:38;;;;;;;29.70;14.57;;;;;;;;;;4987442;28;25059;-71
2023/10/02 12:10:06;;;;;;;26.45;13.68;;;;;;;;;;4982050;28;25177;-71
2023/10/02 12:12:32;;;;;;;27.20;14.13;;;;;;;;;;4958157;28;25115;-72
2023/10/02 12:14:58;;;;;;;26.75;13.52;;;;;;;;;;4977822;28;25060;-71
2023/10/02 12:17:24;;;;;;;26.73;12.68;;;;;;;;;;4992435;28;25067;-71
2023/10/02 12:19:51;;;;;;;26.52;13.18;;;;;;;;;;4984537;28;25095;-72
2023/10/02 12:22:17;;;;;;;30.65;13.82;;;;;;;;;;4979377;28;25077;-74
2023/10/02 12:24:46;;;;;;;31.55;14.20;;;;;;;;;;4989436;28;25069;-70
2023/10/02 12:27:12;;;;;;;26.60;13.60;;;;;;;;;;4975788;28;25069;-73
2023/10/02 12:29:39;;;;;;;26.15;13.52;;;;;;;;;;4983677;28;25132;-72
2023/10/02 12:32:05;;;;;;;31.20;15.02;;;;;;;;;;4968247;28;25093;-71
2023/10/02 12:34:33;;;;;;;30.15;13.75;;;;;;;;;;4982094;28;25070;-71
2023/10/02 12:37:00;;;;;;;29.13;13.32;;;;;;;;;;4988880;28;25108;-72
2023/10/02 12:39:28;;;;;;;26.15;12.32;;;;;;;;;;4981988;28;25063;-71
2023/10/02 12:41:55;;;;;;;30.08;12.93;;;;;;;;;;4997823;28;25079;-72
2023/10/02 12:44:21;;;;;;;29.88;14.15;;;;;;;;;;4982360;28;25079;-69
2023/10/02 12:46:50;;;;;;;26.35;13.90;;;;;;;;;;4973163;28;25135;-70
2023/10/02 12:49:21;;;;;;;31.23;13.80;;;;;;;;;;4989192;28;25128;-71
2023/10/02 12:51:50;;;;;;;28.60;13.75;;;;;;;;;;4991934;28;25109;-74
2023/10/02 12:54:16;;;;;;;44.45;15.40;;;;;;;;;;4973004;28;25065;-72
2023/10/02 12:56:45;;;;;;;30.38;13.95;;;;;;;;;;4981798;28;25053;-70
2023/10/02 12:59:11;;;;;;;28.60;13.15;;;;;;;;;;4999779;28;25136;-71
2023/10/02 13:01:38;;;;;;;27.52;13.75;;;;;;;;;;5005004;28;25067;-70
2023/10/02 13:04:05;;;;;;;32.28;14.75;;;;;;;;;;4987279;28;25069;-72
2023/10/02 13:06:31;;;;;;;26.33;14.23;;;;;;;;;;4984237;28;25081;-72
2023/10/02 13:09:14;;;;;;;26.55;13.23;;;;;;;;;;4996553;28;25087;-70
2023/10/02 13:11:40;;;;;;;31.13;14.70;;;;;;;;;;4968679;28;25053;-72
2023/10/02 13:14:11;;;;;;;31.13;15.00;;;;;;;;;;4986374;28;25153;-71
2023/10/02 13:16:37;;;;;;;25.58;12.85;;;;;;;;;;4985944;28;25121;-71
2023/10/02 13:19:06;;;;;;;32.67;15.23;;;;;;;;;;4970370;28;25067;-71
2023/10/02 13:21:32;;;;;;;28.73;13.68;;;;;;;;;;4965732;28;25059;-71
2023/10/02 13:23:58;;;;;;;28.10;13.18;;;;;;;;;;4988542;28;25066;-70
2023/10/02 13:26:24;;;;;;;26.75;14.45;;;;;;;;;;4968465;28;25052;-73
2023/10/02 13:28:52;;;;;;;31.90;15.23;;;;;;;;;;4989693;28;25063;-72
2023/10/02 13:31:19;;;;;;;24.05;13.98;;;;;;;;;;4977690;28;25052;-74
2023/10/02 13:33:47;;;;;;;28.95;12.63;;;;;;;;;;4970829;28;25121;-71
2023/10/02 13:36:14;;;;;;;28.33;13.95;;;;;;;;;;4969655;28;25073;-69
2023/10/02 13:38:41;;;;;;;24.92;11.32;;;;;;;;;;4985740;28;25078;-70
2023/10/02 13:41:11;;;;;;;27.13;14.65;;;;;;;;;;4966178;28;25071;-71
2023/10/02 13:43:40;;;;;;;29.05;13.70;;;;;;;;;;4971395;28;25136;-71
2023/10/02 13:46:08;;;;;;;29.25;13.90;;;;;;;;;;4994014;28;25135;-73
2023/10/02 13:48:34;;;;;;;33.17;14.30;;;;;;;;;;4968800;28;25074;-71
2023/10/02 13:51:02;;;;;;;29.45;14.00;;;;;;;;;;4985069;28;25067;-70
2023/10/02 13:53:28;;;;;;;28.40;12.48;;;;;;;;;;4974008;28;25061;-71
2023/10/02 13:55:54;;;;;;;25.08;13.05;;;;;;;;;;4985130;28;25082;-70
2023/10/02 13:58:22;;;;;;;27.27;13.57;;;;;;;;;;4958157;28;25147;-69
2023/10/02 14:00:48;;;;;;;23.85;12.93;;;;;;;;;;4972261;28;25101;-74
2023/10/02 14:03:15;;;;;;;29.65;13.38;;;;;;;;;;4977289;28;25150;-72
2023/10/02 14:05:41;;;;;;;28.55;12.45;;;;;;;;;;4995266;28;25065;-72
2023/10/02 14:08:07;;;;;;;29.45;13.52;;;;;;;;;;4990803;28;25052;-72
2023/10/02 14:10:33;;;;;;;28.80;13.25;;;;;;;;;;5002327;28;25102;-70
2023/10/02 14:13:01;;;;;;;27.13;12.65;;;;;;;;;;4989646;28;25057;-71
2023/10/02 14:15:30;;;;;;;25.40;13.32;;;;;;;;;;5011712;28;25064;-72
2023/10/02 14:17:56;;;;;;;33.85;12.88;;;;;;;;;;5001521;28;25072;-72
2023/10/02 14:20:23;;;;;;;25.73;11.23;;;;;;;;;;5011298;28;25090;-69
2023/10/02 14:22:50;;;;;;;27.13;13.05;;;;;;;;;;4993767;28;25061;-70
2023/10/02 14:25:16;;;;;;;22.58;11.55;;;;;;;;;;4990933;28;25080;-71
2023/10/02 14:27:45;;;;;;;26.77;12.15;;;;;;;;;;4996443;28;25104;-72
2023/10/02 14:30:12;;;;;;;28.63;12.77;;;;;;;;;;4988630;28;25062;-74
2023/10/02 14:32:46;;;;;;;25.15;11.57;;;;;;;;;;4985303;28;25183;-70
2023/10/02 14:35:12;;;;;;;26.83;12.18;;;;;;;;;;4996551;28;25075;-71
2023/10/02 14:37:38;;;;;;;22.27;10.63;;;;;;;;;;4964579;28;25149;-71
2023/10/02 14:40:09;;;;;;;27.52;11.10;;;;;;;;;;4987245;28;25174;-70
2023/10/02 14:42:36;;;;;;;27.92;12.52;;;;;;;;;;4982437;28;25051;-71
2023/10/02 14:45:03;;;;;;;22.65;11.18;;;;;;;;;;4988880;28;25059;-73
2023/10/02 14:47:31;;;;;;;25.00;11.77;;;;;;;;;;4984337;28;25100;-70
2023/10/02 14:49:58;;;;;;;25.67;12.05;;;;;;;;;;4966959;28;25074;-71
2023/10/02 14:52:24;;;;;;;28.48;12.15;;;;;;;;;;4933898;28;1101297;-72
2023/10/02 14:54:54;;;;;;;24.88;13.13;;;;;;;;;;4984510;28;25078;-71
2023/10/02 14:57:22;;;;;;;26.25;11.40;;;;;;;;;;4980298;28;25173;-73
2023/10/02 14:59:49;;;;;;;24.10;11.50;;;;;;;;;;4966796;28;25057;-72
2023/10/02 15:02:16;;;;;;;25.08;12.18;;;;;;;;;;4984276;28;25051;-70
2023/10/02 15:04:43;;;;;;;31.45;13.57;;;;;;;;;;4999271;28;25080;-71
2023/10/02 15:07:11;;;;;;;24.45;12.43;;;;;;;;;;4990150;28;25088;-72
2023/10/02 15:09:37;;;;;;;29.85;12.75;;;;;;;;;;4984589;28;25149;-73
2023/10/02 15:12:03;;;;;;;25.70;12.13;;;;;;;;;;4985622;28;25075;-73
2023/10/02 15:14:34;;;;;;;25.02;11.73;;;;;;;;;;4992079;28;25075;-70
2023/10/02 15:17:00;;;;;;;22.77;10.98;;;;;;;;;;4983894;28;25097;-71
2023/10/02 15:19:26;;;;;;;24.25;11.45;;;;;;;;;;4990808;28;25073;-70
2023/10/02 15:21:52;;;;;;;25.42;12.18;;;;;;;;;;4979938;28;25080;-71
2023/10/02 15:24:19;;;;;;;29.38;12.88;;;;;;;;;;5000299;28;25081;-72
2023/10/02 15:26:45;;;;;;;28.27;13.68;;;;;;;;;;4982298;28;25052;-71